Beech Creek, Arkansas
Current Conditions -  °F | °C
As of 4:15 AM on Thursday 18 Dec 2014 (Local Time) from KBQP Reporting Station
Overcast Overcast  
Wind Chill: 39°   Ceiling: 3800
Heat Index: 43°   Visibility: 10mi
Dew Point: 39°   Wind: 7mph
Humidity: 88%   Direction: 70°ENE
Pressure: 30.18"   Gusts: NA
Location:  33.1762°N, 91.7595°W
Report Text: KBQP 181015Z AUTO 07006KT 10SM OVC038 06/04 A3018 RMK AO2 T00600041
Loading
Personal Weather Stations






























Interactive Weather Map New forecast layout! Learn more

10-Day Weather Forecast

Advertisements
Track Severe Weather on mobile